createdAt,value
2023-01-09T00:02:44.545Z,98510.88
2023-01-09T00:05:30.144Z,98503.19
2023-01-09T00:08:15.613Z,98513.50
2023-01-09T00:11:01.337Z,98517.81
2023-01-09T00:13:47.362Z,98515.22
2023-01-09T00:16:32.868Z,98532.44
2023-01-09T00:19:18.257Z,98535.84
2023-01-09T00:22:03.466Z,98528.06
2023-01-09T00:24:48.962Z,98535.78
2023-01-09T00:27:35.020Z,98541.00
2023-01-09T00:30:20.529Z,98551.28
2023-01-09T00:33:06.264Z,98564.19
2023-01-09T00:35:51.522Z,98550.44
2023-01-09T00:38:37.577Z,98562.47
2023-01-09T00:41:39.767Z,98570.97
2023-01-09T00:44:34.405Z,98568.28
2023-01-09T00:47:31.701Z,98571.63
2023-01-09T00:50:22.399Z,98566.38
2023-01-09T00:53:15.702Z,98578.28
2023-01-09T00:56:06.777Z,98589.38
2023-01-09T00:58:53.184Z,98584.16
2023-01-09T01:01:38.871Z,98587.56
2023-01-09T01:04:56.960Z,98584.91
2023-01-09T01:07:43.379Z,98589.16
2023-01-09T01:10:28.734Z,98587.41
2023-01-09T01:13:15.057Z,98585.69
2023-01-09T01:16:00.603Z,98596.81
2023-01-09T01:18:46.355Z,98601.91
2023-01-09T01:21:31.921Z,98601.88
2023-01-09T01:24:19.847Z,98603.59
2023-01-09T01:27:05.441Z,98607.00
2023-01-09T01:29:51.376Z,98608.72
2023-01-09T01:32:37.210Z,98613.91
2023-01-09T01:35:22.753Z,98629.38
2023-01-09T01:38:08.302Z,98627.63
2023-01-09T01:40:54.747Z,98639.69
2023-01-09T01:43:56.656Z,98644.84
2023-01-09T01:46:42.311Z,98656.00
2023-01-09T01:49:27.792Z,98661.16
2023-01-09T01:52:13.652Z,98664.63
2023-01-09T01:54:59.782Z,98674.09
2023-01-09T01:57:49.424Z,98681.09
2023-01-09T02:00:40.129Z,98686.25
2023-01-09T02:03:27.701Z,98697.50
2023-01-09T02:06:14.910Z,98725.91
2023-01-09T02:09:01.914Z,98714.72
2023-01-09T02:11:49.608Z,98725.06
2023-01-09T02:14:35.015Z,98729.44
2023-01-09T02:17:49.605Z,98734.63
2023-01-09T02:20:47.899Z,98752.69
2023-01-09T02:23:42.608Z,98755.28
2023-01-09T02:26:46.455Z,98777.59
2023-01-09T02:29:47.016Z,98790.50
2023-01-09T02:32:47.301Z,98806.00
2023-01-09T02:35:51.409Z,98811.97
2023-01-09T02:38:54.464Z,98820.53
2023-01-09T02:41:58.614Z,98826.56
2023-01-09T02:44:44.572Z,98814.47
2023-01-09T02:47:30.068Z,98839.47
2023-01-09T02:50:23.627Z,98854.09
2023-01-09T02:53:18.103Z,98860.97
2023-01-09T02:56:26.704Z,98867.75
2023-01-09T02:59:41.489Z,98882.28
2023-01-09T03:03:04.175Z,98896.94
2023-01-09T03:06:08.044Z,98904.72
2023-01-09T03:09:01.772Z,98917.69
2023-01-09T03:11:53.790Z,98942.69
2023-01-09T03:14:43.294Z,98956.47
2023-01-09T03:17:37.145Z,98975.44
2023-01-09T03:20:27.644Z,98979.78
2023-01-09T03:23:13.239Z,98984.97
2023-01-09T03:25:58.812Z,98991.88
2023-01-09T03:28:44.978Z,99005.66
2023-01-09T03:31:30.917Z,99012.63
2023-01-09T03:34:16.345Z,99022.09
2023-01-09T03:37:01.972Z,99022.97
2023-01-09T03:39:47.530Z,99031.59
2023-01-09T03:42:32.917Z,99043.63
2023-01-09T03:45:18.458Z,99064.31
2023-01-09T03:48:04.402Z,99067.75
2023-01-09T03:50:54.641Z,99059.19
2023-01-09T03:53:40.380Z,99064.41
2023-01-09T03:56:25.790Z,99063.59
2023-01-09T03:59:11.068Z,99081.69
2023-01-09T04:01:57.196Z,99086.88
2023-01-09T04:04:42.875Z,99084.28
2023-01-09T04:07:28.528Z,99094.63
2023-01-09T04:10:13.903Z,99104.97
2023-01-09T04:12:59.258Z,99113.56
2023-01-09T04:15:44.488Z,99126.47
2023-01-09T04:18:29.877Z,99135.94
2023-01-09T04:21:15.860Z,99136.78
2023-01-09T04:24:01.177Z,99152.28
2023-01-09T04:26:46.454Z,99155.72
2023-01-09T04:29:31.833Z,99160.00
2023-01-09T04:32:17.155Z,99160.88
2023-01-09T04:35:02.701Z,99166.03
2023-01-09T04:37:48.233Z,99167.72
2023-01-09T04:40:33.703Z,99170.31
2023-01-09T04:43:19.128Z,99180.66
2023-01-09T04:46:04.479Z,99193.53
2023-01-09T04:48:49.787Z,99191.84
2023-01-09T04:51:35.137Z,99202.16
2023-01-09T04:54:20.981Z,99210.75
2023-01-09T04:57:06.768Z,99217.66
2023-01-09T04:59:52.329Z,99219.34
2023-01-09T05:02:39.635Z,99219.38
2023-01-09T05:05:25.005Z,99221.06
2023-01-09T05:08:10.528Z,99232.28
2023-01-09T05:10:56.003Z,99229.69
2023-01-09T05:13:41.297Z,99223.66
2023-01-09T05:16:26.796Z,99230.53
2023-01-09T05:19:12.149Z,99233.09
2023-01-09T05:21:57.457Z,99239.97
2023-01-09T05:24:43.172Z,99241.66
2023-01-09T05:27:30.475Z,99254.53
2023-01-09T05:30:18.238Z,99251.06
2023-01-09T05:33:04.100Z,99263.94
2023-01-09T05:35:49.816Z,99259.69
2023-01-09T05:38:35.513Z,99267.38
2023-01-09T05:41:22.514Z,99272.50
2023-01-09T05:44:09.105Z,99288.88
2023-01-09T05:46:54.531Z,99287.13
2023-01-09T05:49:39.839Z,99294.84
2023-01-09T05:52:25.219Z,99293.13
2023-01-09T05:55:12.424Z,99304.25
2023-01-09T05:57:57.721Z,99307.72
2023-01-09T06:00:43.168Z,99319.75
2023-01-09T06:03:28.508Z,99320.63
2023-01-09T06:06:13.835Z,99319.72
2023-01-09T06:08:59.173Z,99330.03
2023-01-09T06:11:44.507Z,99330.00
2023-01-09T06:14:29.915Z,99329.13
2023-01-09T06:17:15.164Z,99337.69
2023-01-09T06:20:00.655Z,99353.13
2023-01-09T06:22:46.101Z,99355.69
2023-01-09T06:25:31.544Z,99370.31
2023-01-09T06:28:17.058Z,99378.00
2023-01-09T06:31:02.479Z,99381.41
2023-01-09T06:33:48.464Z,99389.97
2023-01-09T06:36:33.829Z,99395.16
2023-01-09T06:39:19.283Z,99399.47
2023-01-09T06:42:05.124Z,99400.31
2023-01-09T06:44:50.731Z,99404.63
2023-01-09T06:47:36.603Z,99412.38
2023-01-09T06:50:22.101Z,99413.25
2023-01-09T06:53:07.631Z,99409.78
2023-01-09T06:55:53.575Z,99420.09
2023-01-09T06:58:38.880Z,99426.16
2023-01-09T07:01:24.437Z,99438.13
2023-01-09T07:04:12.866Z,99436.38
2023-01-09T07:06:58.388Z,99454.44
2023-01-09T07:09:43.840Z,99453.53
2023-01-09T07:12:29.206Z,99456.94
2023-01-09T07:15:14.941Z,99475.00
2023-01-09T07:18:00.633Z,99478.41
2023-01-09T07:20:45.892Z,99482.72
2023-01-09T07:23:31.526Z,99478.38
2023-01-09T07:26:16.722Z,99487.78
2023-01-09T07:29:02.232Z,99493.81
2023-01-09T07:31:47.827Z,99497.28
2023-01-09T07:34:33.452Z,99499.81
2023-01-09T07:37:19.401Z,99503.25
2023-01-09T07:40:05.332Z,99506.69
2023-01-09T07:42:53.571Z,99506.69
2023-01-09T07:45:39.341Z,99519.59
2023-01-09T07:48:24.504Z,99523.06
2023-01-09T07:51:10.564Z,99528.16
2023-01-09T07:53:56.158Z,99538.47
2023-01-09T07:56:41.475Z,99538.44
2023-01-09T07:59:29.625Z,99537.56
2023-01-09T08:02:15.229Z,99546.13
2023-01-09T08:05:00.606Z,99564.22
2023-01-09T08:07:46.267Z,99569.31
2023-01-09T08:10:31.657Z,99577.03
2023-01-09T08:13:17.250Z,99589.91
2023-01-09T08:16:02.494Z,99591.63
2023-01-09T08:18:48.010Z,99607.91
2023-01-09T08:21:33.382Z,99609.63
2023-01-09T08:24:18.713Z,99613.91
2023-01-09T08:27:04.155Z,99616.44
2023-01-09T08:29:49.573Z,99624.94
2023-01-09T08:32:35.156Z,99638.63
2023-01-09T08:35:21.619Z,99644.72
2023-01-09T08:38:07.229Z,99650.69
2023-01-09T08:40:52.621Z,99647.31
2023-01-09T08:43:56.456Z,99654.22
2023-01-09T08:47:01.151Z,99663.69
2023-01-09T08:49:46.950Z,99659.31
2023-01-09T08:52:32.953Z,99672.22
2023-01-09T08:55:18.541Z,99677.38
2023-01-09T08:58:04.031Z,99684.16
2023-01-09T09:00:49.321Z,99694.50
2023-01-09T09:03:34.859Z,99691.09
2023-01-09T09:06:20.579Z,99699.75
2023-01-09T09:09:07.055Z,99704.00
2023-01-09T09:11:52.809Z,99709.09
2023-01-09T09:14:56.803Z,99709.94
2023-01-09T09:17:44.530Z,99719.34
2023-01-09T09:20:33.204Z,99715.88
2023-01-09T09:23:18.906Z,99725.28
2023-01-09T09:26:05.100Z,99733.13
2023-01-09T09:28:50.293Z,99734.03
2023-01-09T09:31:38.655Z,99735.94
2023-01-09T09:34:24.079Z,99725.72
2023-01-09T09:37:09.834Z,99714.59
2023-01-09T09:39:55.934Z,99724.06
2023-01-09T09:43:04.016Z,99734.44
2023-01-09T09:46:27.237Z,99743.13
2023-01-09T09:49:21.944Z,99742.25
2023-01-09T09:52:29.372Z,99745.72
2023-01-09T09:55:27.176Z,99754.31
2023-01-09T09:58:22.330Z,99757.88
2023-01-09T10:01:10.215Z,99775.97
2023-01-09T10:04:01.754Z,99778.66
2023-01-09T10:06:57.687Z,99789.88
2023-01-09T10:09:49.927Z,99802.84
2023-01-09T10:12:47.744Z,99821.03
2023-01-09T10:15:47.474Z,99818.50
2023-01-09T10:18:51.016Z,99811.69
2023-01-09T10:22:20.389Z,99816.94
2023-01-09T10:25:26.907Z,99829.88
2023-01-09T10:28:40.369Z,99844.53
2023-01-09T10:31:52.940Z,99835.16
2023-01-09T10:35:12.149Z,99839.44
2023-01-09T10:38:01.547Z,99847.28
2023-01-09T10:41:01.920Z,99849.91
2023-01-09T10:44:07.451Z,99855.97
2023-01-09T10:46:58.296Z,99863.03
2023-01-09T10:49:45.366Z,99862.31
2023-01-09T10:52:41.634Z,99858.09
2023-01-09T10:55:41.470Z,99853.75
2023-01-09T10:58:27.468Z,99852.88
2023-01-09T11:01:13.083Z,99851.13
2023-01-09T11:04:01.301Z,99840.78
2023-01-09T11:06:52.975Z,99851.09
2023-01-09T11:10:01.374Z,99858.88
2023-01-09T11:12:47.775Z,99847.69
2023-01-09T11:15:33.505Z,99870.09
2023-01-09T11:18:24.713Z,99865.84
2023-01-09T11:21:38.301Z,99873.63
2023-01-09T11:24:29.686Z,99880.59
2023-01-09T11:27:24.198Z,99890.19
2023-01-09T11:30:13.090Z,99889.34
2023-01-09T11:32:59.340Z,99885.06
2023-01-09T11:36:13.862Z,99896.28
2023-01-09T11:39:01.154Z,99899.78
2023-01-09T11:41:52.752Z,99901.53
2023-01-09T11:44:38.079Z,99905.00
2023-01-09T11:47:40.883Z,99899.84
2023-01-09T11:50:29.066Z,99899.00
2023-01-09T11:53:20.567Z,99905.91
2023-01-09T11:56:06.017Z,99902.50
2023-01-09T11:58:51.672Z,99899.94
2023-01-09T12:01:55.423Z,99890.44
2023-01-09T12:05:01.737Z,99892.22
2023-01-09T12:08:07.000Z,99906.91
2023-01-09T12:11:26.638Z,99908.66
2023-01-09T12:14:40.261Z,99917.28
2023-01-09T12:17:45.519Z,99912.16
2023-01-09T12:20:46.374Z,99902.69
2023-01-09T12:23:59.752Z,99923.38
2023-01-09T12:27:11.292Z,99918.28
2023-01-09T12:30:17.900Z,99933.81
2023-01-09T12:33:21.782Z,99927.81
2023-01-09T12:36:18.463Z,99933.88
2023-01-09T12:39:12.732Z,99953.81
2023-01-09T12:42:16.823Z,99956.50
2023-01-09T12:45:26.484Z,99979.03
2023-01-09T12:48:47.984Z,99940.22
2023-01-09T12:52:01.451Z,99955.72
2023-01-09T12:54:57.439Z,99954.81
2023-01-09T12:57:46.155Z,99973.81
2023-01-09T13:00:41.416Z,99989.38
2023-01-09T13:03:41.786Z,100001.50
2023-01-09T13:06:29.432Z,99998.06
2023-01-09T13:09:25.372Z,99992.88
2023-01-09T13:12:21.810Z,99992.88
2023-01-09T13:15:39.135Z,100006.75
2023-01-09T13:18:29.776Z,100008.47
2023-01-09T13:21:16.444Z,99997.28
2023-01-09T13:24:13.030Z,100000.78
2023-01-09T13:27:05.233Z,99991.25
2023-01-09T13:29:58.555Z,99983.44
2023-01-09T13:32:58.015Z,99976.53
2023-01-09T13:35:55.852Z,99986.03
2023-01-09T13:38:41.592Z,99992.94
2023-01-09T13:41:46.564Z,100008.47
2023-01-09T13:44:33.718Z,100010.22
2023-01-09T13:47:22.055Z,100009.41
2023-01-09T13:50:09.223Z,100021.53
2023-01-09T13:52:54.531Z,100006.00
2023-01-09T13:55:59.993Z,100000.81
2023-01-09T13:58:54.795Z,100005.13
2023-01-09T14:01:41.757Z,100022.44
2023-01-09T14:04:37.824Z,100016.41
2023-01-09T14:07:25.726Z,100005.16
2023-01-09T14:10:27.673Z,100002.53
2023-01-09T14:13:30.577Z,100008.59
2023-01-09T14:16:23.000Z,100013.81
2023-01-09T14:19:17.588Z,100014.66
2023-01-09T14:22:05.240Z,100011.19
2023-01-09T14:24:52.996Z,100015.53
2023-01-09T14:27:56.978Z,100031.94
2023-01-09T14:30:54.719Z,100043.19
2023-01-09T14:33:40.272Z,100057.88
2023-01-09T14:36:30.354Z,100068.25
2023-01-09T14:39:18.404Z,100071.72
2023-01-09T14:42:09.367Z,100089.00
2023-01-09T14:45:14.288Z,100087.25
2023-01-09T14:48:06.281Z,100089.00
2023-01-09T14:50:56.015Z,100102.78
2023-01-09T14:53:42.906Z,100105.38
2023-01-09T14:56:31.258Z,100117.44
2023-01-09T14:59:17.414Z,100129.56
2023-01-09T15:02:03.033Z,100137.38
2023-01-09T15:04:49.164Z,100136.50
2023-01-09T15:07:43.919Z,100152.94
2023-01-09T15:10:33.029Z,100161.59
2023-01-09T15:13:30.948Z,100168.47
2023-01-09T15:16:19.879Z,100179.69
2023-01-09T15:19:08.708Z,100185.69
2023-01-09T15:22:06.706Z,100193.44
2023-01-09T15:24:52.243Z,100203.78
2023-01-09T15:27:47.871Z,100215.84
2023-01-09T15:30:36.021Z,100214.16
2023-01-09T15:33:21.882Z,100235.81
2023-01-09T15:36:21.067Z,100247.06
2023-01-09T15:39:07.387Z,100250.50
2023-01-09T15:42:13.284Z,100259.97
2023-01-09T15:44:58.802Z,100267.72
2023-01-09T15:47:44.092Z,100283.22
2023-01-09T15:50:29.917Z,100284.03
2023-01-09T15:53:18.975Z,100284.81
2023-01-09T15:56:17.073Z,100295.88
2023-01-09T15:59:02.313Z,100306.06
2023-01-09T16:02:07.659Z,100315.44
2023-01-09T16:04:55.713Z,100317.09
2023-01-09T16:07:47.173Z,100309.34
2023-01-09T16:10:36.067Z,100318.84
2023-01-09T16:13:24.428Z,100336.03
2023-01-09T16:16:10.260Z,100336.81
2023-01-09T16:18:57.232Z,100344.50
2023-01-09T16:21:42.968Z,100347.94
2023-01-09T16:24:40.081Z,100353.09
2023-01-09T16:27:35.178Z,100339.28
2023-01-09T16:30:27.003Z,100350.41
2023-01-09T16:33:22.043Z,100347.69
2023-01-09T16:36:10.248Z,100358.00
2023-01-09T16:38:56.864Z,100354.50
2023-01-09T16:42:02.348Z,100359.75
2023-01-09T16:44:47.804Z,100375.22
2023-01-09T16:47:33.365Z,100377.78
2023-01-09T16:50:18.962Z,100376.06
2023-01-09T16:53:18.146Z,100386.44
2023-01-09T16:56:04.180Z,100393.28
2023-01-09T16:58:50.581Z,100402.72
2023-01-09T17:01:36.224Z,100403.56
2023-01-09T17:04:24.138Z,100408.63
2023-01-09T17:07:16.987Z,100427.47
2023-01-09T17:10:02.416Z,100421.31
2023-01-09T17:12:48.087Z,100436.72
2023-01-09T17:15:33.702Z,100439.28
2023-01-09T17:18:24.131Z,100444.47
2023-01-09T17:21:19.720Z,100440.06
2023-01-09T17:24:24.390Z,100446.94
2023-01-09T17:27:28.553Z,100456.41
2023-01-09T17:30:18.707Z,100466.72
2023-01-09T17:33:05.533Z,100464.13
2023-01-09T17:35:50.887Z,100460.75
2023-01-09T17:38:36.469Z,100464.28
2023-01-09T17:41:23.723Z,100462.63
2023-01-09T17:44:11.022Z,100469.53
2023-01-09T17:46:56.549Z,100472.09
2023-01-09T17:49:42.524Z,100483.25
2023-01-09T17:52:28.710Z,100479.78
2023-01-09T17:55:14.959Z,100484.88
2023-01-09T17:58:00.840Z,100490.22
2023-01-09T18:00:48.103Z,100494.63
2023-01-09T18:03:34.514Z,100503.19
2023-01-09T18:06:21.554Z,100515.09
2023-01-09T18:09:07.874Z,100515.03
2023-01-09T18:11:53.636Z,100509.91
2023-01-09T18:14:39.108Z,100518.47
2023-01-09T18:17:24.781Z,100515.84
2023-01-09T18:20:10.890Z,100528.72
2023-01-09T18:22:56.388Z,100530.50
2023-01-09T18:25:42.857Z,100539.06
2023-01-09T18:28:28.185Z,100539.06
2023-01-09T18:31:15.706Z,100535.50
2023-01-09T18:34:06.873Z,100536.38
2023-01-09T18:36:52.463Z,100540.56
2023-01-09T18:39:37.767Z,100532.66
2023-01-09T18:42:23.060Z,100540.34
2023-01-09T18:45:08.863Z,100545.44
2023-01-09T18:47:54.231Z,100548.00
2023-01-09T18:50:39.430Z,100539.34
2023-01-09T18:53:24.642Z,100540.97
2023-01-09T18:56:10.192Z,100540.88
2023-01-09T18:58:57.328Z,100545.13
2023-01-09T19:01:43.481Z,100541.63
2023-01-09T19:04:28.719Z,100555.44
2023-01-09T19:07:14.155Z,100556.22
2023-01-09T19:09:59.512Z,100557.06
2023-01-09T19:12:44.866Z,100568.16
2023-01-09T19:15:30.415Z,100567.25
2023-01-09T19:18:16.007Z,100579.19
2023-01-09T19:21:01.534Z,100573.09
2023-01-09T19:23:47.888Z,100566.22
2023-01-09T19:26:33.489Z,100572.38
2023-01-09T19:29:19.483Z,100568.94
2023-01-09T19:32:08.554Z,100562.91
2023-01-09T19:34:53.715Z,100561.25
2023-01-09T19:37:39.106Z,100556.97
2023-01-09T19:40:25.703Z,100564.75
2023-01-09T19:43:11.255Z,100571.53
2023-01-09T19:45:57.097Z,100581.00
2023-01-09T19:48:42.995Z,100584.50
2023-01-09T19:51:28.246Z,100595.59
2023-01-09T19:54:13.610Z,100609.34
2023-01-09T19:56:58.952Z,100613.72
2023-01-09T19:59:44.292Z,100624.84
2023-01-09T20:02:29.810Z,100636.88
2023-01-09T20:05:15.296Z,100638.44
2023-01-09T20:08:03.583Z,100650.41
2023-01-09T20:10:48.929Z,100653.94
2023-01-09T20:13:35.162Z,100661.66
2023-01-09T20:16:22.775Z,100663.38
2023-01-09T20:19:10.647Z,100665.97
2023-01-09T20:21:56.155Z,100685.78
2023-01-09T20:24:41.979Z,100696.97
2023-01-09T20:27:27.502Z,100690.03
2023-01-09T20:30:13.516Z,100695.06
2023-01-09T20:33:00.152Z,100694.91
2023-01-09T20:35:46.020Z,100700.13
2023-01-09T20:38:32.806Z,100703.69
2023-01-09T20:41:24.007Z,100697.75
2023-01-09T20:44:14.176Z,100700.38
2023-01-09T20:46:59.528Z,100708.16
2023-01-09T20:49:44.934Z,100714.28
2023-01-09T20:52:30.504Z,100719.44
2023-01-09T20:55:16.014Z,100715.16
2023-01-09T20:58:01.445Z,100712.47
2023-01-09T21:00:46.892Z,100716.72
2023-01-09T21:03:32.807Z,100707.31
2023-01-09T21:06:20.196Z,100717.75
2023-01-09T21:09:05.967Z,100703.22
2023-01-09T21:11:51.631Z,100712.69
2023-01-09T21:14:38.990Z,100698.88
2023-01-09T21:17:24.315Z,100701.41
2023-01-09T21:20:13.430Z,100694.38
2023-01-09T21:22:59.040Z,100695.97
2023-01-09T21:25:45.339Z,100695.06
2023-01-09T21:28:31.849Z,100686.41
2023-01-09T21:31:20.454Z,100688.97
2023-01-09T21:34:08.171Z,100677.00
2023-01-09T21:36:53.956Z,100675.25
2023-01-09T21:39:39.490Z,100683.00
2023-01-09T21:42:43.297Z,100680.34
2023-01-09T21:45:48.071Z,100686.25
2023-01-09T21:48:33.835Z,100691.44
2023-01-09T21:51:19.588Z,100694.88
2023-01-09T21:54:05.340Z,100696.66
2023-01-09T21:56:52.558Z,100695.88
2023-01-09T21:59:37.731Z,100692.25
2023-01-09T22:02:23.694Z,100677.75
2023-01-09T22:05:09.455Z,100683.00
2023-01-09T22:07:56.122Z,100677.00
2023-01-09T22:10:41.883Z,100677.91
2023-01-09T22:13:28.382Z,100684.81
2023-01-09T22:16:14.068Z,100683.13
2023-01-09T22:18:59.397Z,100677.97
2023-01-09T22:21:44.860Z,100679.66
2023-01-09T22:24:30.509Z,100681.31
2023-01-09T22:27:16.252Z,100680.47
2023-01-09T22:30:01.663Z,100683.94
2023-01-09T22:32:46.999Z,100672.81
2023-01-09T22:35:32.406Z,100679.75
2023-01-09T22:38:17.736Z,100677.16
2023-01-09T22:41:04.157Z,100678.91
2023-01-09T22:43:49.906Z,100679.81
2023-01-09T22:46:35.618Z,100676.44
2023-01-09T22:49:21.024Z,100665.28
2023-01-09T22:52:06.483Z,100657.56
2023-01-09T22:54:51.885Z,100649.88
2023-01-09T22:57:37.191Z,100656.88
2023-01-09T23:00:22.505Z,100653.50
2023-01-09T23:03:07.872Z,100646.69
2023-01-09T23:06:05.568Z,100651.03
2023-01-09T23:08:52.839Z,100651.97
2023-01-09T23:11:57.205Z,100653.72
2023-01-09T23:14:42.903Z,100646.84
2023-01-09T23:17:28.259Z,100649.53
2023-01-09T23:20:13.603Z,100656.53
2023-01-09T23:22:59.178Z,100639.28
2023-01-09T23:25:52.192Z,100637.66
2023-01-09T23:28:37.416Z,100629.97
2023-01-09T23:31:22.773Z,100646.34
2023-01-09T23:34:08.514Z,100641.22
2023-01-09T23:36:57.423Z,100629.19
2023-01-09T23:39:43.078Z,100617.19
2023-01-09T23:42:46.974Z,100615.38
2023-01-09T23:45:33.891Z,100617.91
2023-01-09T23:48:19.866Z,100624.81
2023-01-09T23:51:08.276Z,100613.56
2023-01-09T23:53:53.844Z,100604.09
2023-01-09T23:56:39.255Z,100610.16
2023-01-09T23:59:24.646Z,100609.31
